Time;durP1;ratioP1;P1;durP2;ratioP2;P2;SDS_P1;SDS_P2;PMS_P1;PMS_P2;Temp;Humidity;BMP_temperature;BMP_pressure;BME280_temperature;BME280_humidity;BME280_pressure;Samples;Min_cycle;Max_cycle;Signal;HPM_P1;HPM_P2
2023/05/26 00:01:57;;;;;;;0.20;0.20;;;8.90;99.90;;;;;;4893524;29;20041;-88
2023/05/26 00:04:24;;;;;;;0.20;0.20;;;8.90;99.90;;;;;;4895196;29;20068;-89
2023/05/26 00:06:52;;;;;;;0.10;0.10;;;8.90;99.90;;;;;;4880137;29;20081;-89
2023/05/26 00:09:20;;;;;;;0.20;0.20;;;8.90;99.90;;;;;;4886969;29;20072;-88
2023/05/26 00:11:46;;;;;;;0.20;0.20;;;8.90;99.90;;;;;;4859846;29;20057;-87
2023/05/26 00:14:14;;;;;;;0.20;0.20;;;8.80;99.90;;;;;;4854114;29;20055;-87
2023/05/26 00:16:43;;;;;;;0.10;0.10;;;8.80;99.90;;;;;;4877372;29;20562;-86
2023/05/26 00:19:09;;;;;;;0.20;0.20;;;8.80;99.90;;;;;;4861428;29;20048;-87
2023/05/26 00:21:35;;;;;;;0.13;0.13;;;8.80;99.90;;;;;;4877852;29;20037;-87
2023/05/26 00:24:02;;;;;;;0.20;0.20;;;8.80;99.90;;;;;;4865689;29;20041;-87
2023/05/26 00:26:27;;;;;;;0.20;0.20;;;8.80;99.90;;;;;;4859731;29;20085;-87
2023/05/26 00:28:53;;;;;;;0.20;0.20;;;8.80;99.90;;;;;;4860959;29;20145;-88
2023/05/26 00:31:18;;;;;;;0.20;0.20;;;8.80;99.90;;;;;;4862514;29;20107;-88
2023/05/26 00:33:44;;;;;;;0.10;0.10;;;8.80;99.90;;;;;;4852432;29;20056;-87
2023/05/26 00:36:10;;;;;;;0.10;0.10;;;8.70;99.90;;;;;;4875795;29;20053;-88
2023/05/26 00:38:35;;;;;;;0.20;0.20;;;8.70;99.90;;;;;;4848237;29;20490;-88
2023/05/26 00:41:10;;;;;;;0.10;0.10;;;8.70;99.90;;;;;;4877463;29;20066;-87
2023/05/26 00:43:36;;;;;;;0.20;0.20;;;8.70;99.90;;;;;;4876831;29;20035;-87
2023/05/26 00:46:01;;;;;;;0.20;0.20;;;8.70;99.90;;;;;;4882970;29;20132;-88
2023/05/26 00:48:27;;;;;;;0.20;0.20;;;8.60;99.90;;;;;;4875202;29;20072;-89
2023/05/26 00:50:53;;;;;;;0.20;0.20;;;8.70;99.90;;;;;;4856809;29;20045;-87
2023/05/26 00:53:19;;;;;;;0.10;0.10;;;8.60;99.90;;;;;;4860291;29;20391;-88
2023/05/26 00:55:50;;;;;;;0.20;0.20;;;8.60;99.90;;;;;;4877128;29;20171;-88
2023/05/26 00:58:16;;;;;;;0.20;0.20;;;8.60;99.90;;;;;;4856648;29;20063;-88
2023/05/26 01:00:42;;;;;;;0.20;0.20;;;8.60;99.90;;;;;;4882244;29;20052;-88
2023/05/26 01:03:13;;;;;;;0.20;0.20;;;8.60;99.90;;;;;;4858107;29;20182;-87
2023/05/26 01:05:39;;;;;;;0.20;0.20;;;8.60;99.90;;;;;;4864336;29;20069;-87
2023/05/26 01:08:05;;;;;;;0.10;0.10;;;8.50;99.90;;;;;;4877755;29;20056;-87
2023/05/26 01:10:32;;;;;;;0.20;0.20;;;8.50;99.90;;;;;;4877512;29;20093;-88
2023/05/26 01:13:07;;;;;;;0.10;0.10;;;8.50;99.90;;;;;;4877963;29;20084;-88
2023/05/26 01:15:49;;;;;;;0.20;0.20;;;8.50;99.90;;;;;;4859497;29;20051;-88
2023/05/26 01:18:29;;;;;;;0.20;0.20;;;8.50;99.90;;;;;;4859726;29;20139;-89
2023/05/26 01:21:05;;;;;;;0.20;0.20;;;8.50;99.90;;;;;;4875894;29;20511;-87
2023/05/26 01:23:56;;;;;;;0.20;0.20;;;8.50;99.90;;;;;;4871675;29;20517;-89
2023/05/26 01:26:53;;;;;;;0.20;0.20;;;8.50;99.90;;;;;;4864509;29;20040;-88
2023/05/26 01:29:21;;;;;;;0.10;0.10;;;8.40;99.90;;;;;;4865492;29;20089;-88
2023/05/26 01:31:47;;;;;;;0.20;0.20;;;8.40;99.90;;;;;;4877607;29;20070;-88
2023/05/26 01:34:15;;;;;;;0.20;0.20;;;8.40;99.90;;;;;;4874484;29;20068;-88
2023/05/26 01:36:41;;;;;;;0.10;0.10;;;8.40;99.90;;;;;;4878249;29;20037;-87
2023/05/26 01:39:08;;;;;;;0.20;0.20;;;8.40;99.90;;;;;;4893204;29;20119;-88
2023/05/26 01:41:47;;;;;;;0.20;0.20;;;8.40;99.90;;;;;;4906423;29;20045;-88
2023/05/26 01:44:18;;;;;;;0.20;0.20;;;8.40;99.90;;;;;;4860389;29;20041;-89
2023/05/26 01:46:51;;;;;;;0.20;0.20;;;8.30;99.90;;;;;;4878123;29;20416;-89
2023/05/26 01:49:21;;;;;;;0.20;0.20;;;8.30;99.90;;;;;;4874971;29;20103;-88
2023/05/26 01:51:55;;;;;;;0.10;0.10;;;8.30;99.90;;;;;;4859324;29;20061;-88
2023/05/26 01:54:22;;;;;;;0.20;0.20;;;8.30;99.90;;;;;;4857721;29;20052;-88
2023/05/26 01:56:49;;;;;;;0.20;0.20;;;8.30;99.90;;;;;;4875596;29;20038;-88
2023/05/26 01:59:16;;;;;;;0.20;0.20;;;8.30;99.90;;;;;;4873906;29;20474;-88
2023/05/26 02:01:42;;;;;;;0.10;0.10;;;8.30;99.90;;;;;;4855009;29;20056;-88
2023/05/26 02:04:10;;;;;;;0.20;0.20;;;8.30;99.90;;;;;;4885829;29;20132;-88
2023/05/26 02:06:36;;;;;;;0.20;0.20;;;8.30;99.90;;;;;;4887816;29;20040;-88
2023/05/26 02:09:03;;;;;;;0.20;0.20;;;8.30;99.90;;;;;;4869822;29;20053;-88
2023/05/26 02:11:29;;;;;;;0.15;0.15;;;8.20;99.90;;;;;;4861294;29;20156;-88
2023/05/26 02:13:55;;;;;;;0.20;0.20;;;8.30;99.90;;;;;;4856049;29;20044;-88
2023/05/26 02:16:23;;;;;;;0.20;0.20;;;8.20;99.90;;;;;;4866426;29;20069;-87
2023/05/26 02:18:49;;;;;;;0.20;0.20;;;8.20;99.90;;;;;;4890693;29;20044;-88
2023/05/26 02:21:15;;;;;;;0.20;0.20;;;8.20;99.90;;;;;;4874460;29;20045;-88
2023/05/26 02:23:46;;;;;;;0.15;0.15;;;8.20;99.90;;;;;;4867762;29;20120;-87
2023/05/26 02:26:12;;;;;;;0.15;0.15;;;8.20;99.90;;;;;;4882344;29;20077;-87
2023/05/26 02:28:38;;;;;;;0.20;0.20;;;8.20;99.90;;;;;;4874884;29;20109;-87
2023/05/26 02:31:04;;;;;;;0.10;0.10;;;8.20;99.90;;;;;;4868499;29;20042;-87
2023/05/26 02:33:30;;;;;;;0.20;0.20;;;8.20;99.90;;;;;;4852507;29;20079;-89
2023/05/26 02:35:56;;;;;;;0.20;0.20;;;8.20;99.90;;;;;;4864122;29;20135;-87
2023/05/26 02:38:22;;;;;;;0.20;0.20;;;8.20;99.90;;;;;;4880396;29;20049;-87
2023/05/26 02:40:49;;;;;;;0.20;0.20;;;8.20;99.90;;;;;;4882898;29;20561;-88
2023/05/26 02:43:20;;;;;;;0.20;0.20;;;8.20;99.90;;;;;;4872041;29;20068;-88
2023/05/26 02:45:45;;;;;;;0.20;0.20;;;8.30;99.90;;;;;;4881657;29;20050;-87
2023/05/26 02:48:11;;;;;;;0.10;0.10;;;8.30;99.90;;;;;;4876192;29;20128;-87
2023/05/26 02:50:36;;;;;;;0.20;0.20;;;8.20;99.90;;;;;;4866820;29;20124;-87
2023/05/26 02:53:05;;;;;;;0.20;0.20;;;8.20;99.90;;;;;;4864060;29;20403;-89
2023/05/26 02:55:31;;;;;;;0.20;0.20;;;8.20;99.90;;;;;;4878335;29;20056;-86
2023/05/26 02:57:59;;;;;;;0.20;0.20;;;8.20;99.90;;;;;;4879210;29;20053;-87
2023/05/26 03:00:25;;;;;;;0.20;0.20;;;8.20;99.90;;;;;;4862982;29;20473;-88
2023/05/26 03:02:51;;;;;;;0.15;0.15;;;8.30;99.90;;;;;;4862534;29;20045;-87
2023/05/26 03:05:16;;;;;;;0.10;0.10;;;8.30;99.90;;;;;;4863398;29;20513;-87
2023/05/26 03:07:42;;;;;;;0.20;0.20;;;8.20;99.90;;;;;;4862709;29;20049;-87
2023/05/26 03:10:08;;;;;;;0.20;0.20;;;8.20;99.90;;;;;;4864809;29;20135;-87
2023/05/26 03:12:33;;;;;;;0.20;0.20;;;8.20;99.90;;;;;;4862968;29;20052;-87
2023/05/26 03:14:59;;;;;;;0.20;0.20;;;8.40;99.90;;;;;;4862568;29;20410;-88
2023/05/26 03:17:25;;;;;;;0.20;0.20;;;8.20;99.90;;;;;;4867778;29;20493;-89
2023/05/26 03:19:50;;;;;;;0.20;0.20;;;8.20;99.90;;;;;;4894951;29;20048;-87
2023/05/26 03:22:16;;;;;;;0.20;0.20;;;8.20;99.90;;;;;;4900464;29;20049;-87
2023/05/26 03:24:42;;;;;;;0.20;0.20;;;8.20;99.90;;;;;;4896178;29;20029;-87
2023/05/26 03:27:07;;;;;;;0.20;0.20;;;8.30;99.90;;;;;;4879631;29;20049;-88
2023/05/26 03:29:33;;;;;;;0.20;0.20;;;8.20;99.90;;;;;;4859471;29;20435;-87
2023/05/26 03:31:59;;;;;;;0.10;0.10;;;8.20;99.90;;;;;;4893047;29;20048;-87
2023/05/26 03:34:25;;;;;;;0.20;0.20;;;8.30;99.90;;;;;;4893582;29;20048;-87
2023/05/26 03:36:52;;;;;;;0.20;0.20;;;8.30;99.90;;;;;;4892596;29;20076;-88
2023/05/26 03:39:18;;;;;;;0.20;0.20;;;8.30;99.90;;;;;;4862896;29;20056;-86
2023/05/26 03:41:44;;;;;;;0.20;0.20;;;8.30;99.90;;;;;;4861900;29;20056;-88
2023/05/26 03:44:14;;;;;;;0.20;0.20;;;8.30;99.90;;;;;;4873428;29;20045;-88
2023/05/26 03:46:40;;;;;;;0.20;0.20;;;8.30;99.90;;;;;;4860935;29;20076;-88
2023/05/26 03:49:06;;;;;;;0.20;0.20;;;8.30;99.90;;;;;;4880431;29;20053;-88
2023/05/26 03:51:33;;;;;;;0.20;0.20;;;8.30;99.90;;;;;;4872125;29;20168;-88
2023/05/26 03:53:59;;;;;;;0.10;0.10;;;8.30;99.90;;;;;;4893344;29;20077;-88
2023/05/26 03:56:25;;;;;;;0.20;0.20;;;8.30;99.90;;;;;;4870093;29;20041;-87
2023/05/26 03:58:51;;;;;;;0.10;0.10;;;8.30;99.90;;;;;;4862760;29;20361;-88
2023/05/26 04:01:19;;;;;;;0.20;0.20;;;8.30;99.90;;;;;;4878066;29;20081;-88
2023/05/26 04:03:45;;;;;;;0.20;0.20;;;8.30;99.90;;;;;;4884203;29;20060;-88
2023/05/26 04:06:11;;;;;;;0.20;0.20;;;8.30;99.90;;;;;;4867368;29;20049;-88
2023/05/26 04:08:36;;;;;;;0.20;0.20;;;8.30;99.90;;;;;;4863238;29;20056;-86
2023/05/26 04:11:02;;;;;;;0.10;0.10;;;8.30;99.90;;;;;;4864517;29;20040;-88
2023/05/26 04:13:28;;;;;;;0.10;0.10;;;8.40;99.90;;;;;;4863515;29;20045;-87
2023/05/26 04:15:53;;;;;;;0.20;0.20;;;8.40;99.90;;;;;;4863148;29;20085;-87
2023/05/26 04:18:19;;;;;;;0.20;0.20;;;8.40;99.90;;;;;;4860293;29;20049;-88
2023/05/26 04:20:47;;;;;;;0.10;0.10;;;8.50;99.90;;;;;;4883872;29;20053;-88
2023/05/26 04:23:13;;;;;;;0.15;0.15;;;8.40;99.90;;;;;;4863329;29;20045;-88
2023/05/26 04:25:40;;;;;;;0.20;0.20;;;8.50;99.90;;;;;;4861908;29;20041;-87
2023/05/26 04:28:09;;;;;;;0.15;0.15;;;8.50;99.90;;;;;;4875334;29;20067;-87
2023/05/26 04:30:39;;;;;;;0.10;0.10;;;8.50;99.90;;;;;;4890425;29;20458;-88
2023/05/26 04:33:08;;;;;;;0.17;0.17;;;8.50;99.90;;;;;;4881562;29;20047;-87
2023/05/26 04:35:34;;;;;;;0.20;0.20;;;8.50;99.90;;;;;;4877150;29;20047;-87
2023/05/26 04:38:00;;;;;;;0.10;0.10;;;8.60;99.90;;;;;;4862066;29;20056;-87
2023/05/26 04:40:25;;;;;;;0.17;0.17;;;8.60;99.90;;;;;;4869861;29;20075;-89
2023/05/26 04:42:52;;;;;;;0.20;0.20;;;8.60;99.90;;;;;;4863897;29;20032;-88
2023/05/26 04:45:18;;;;;;;0.20;0.20;;;8.60;99.90;;;;;;4891076;29;20124;-88
2023/05/26 04:47:45;;;;;;;0.20;0.20;;;8.70;99.90;;;;;;4877707;29;20462;-87
2023/05/26 04:50:16;;;;;;;0.20;0.20;;;8.70;99.90;;;;;;4879585;29;20052;-87
2023/05/26 04:52:42;;;;;;;0.20;0.20;;;8.70;99.90;;;;;;4862287;29;20053;-87
2023/05/26 04:55:08;;;;;;;0.20;0.20;;;8.80;99.90;;;;;;4874446;29;20049;-88
2023/05/26 04:57:34;;;;;;;0.20;0.20;;;8.80;99.90;;;;;;4862158;29;20053;-87
2023/05/26 05:00:00;;;;;;;0.20;0.20;;;9.00;99.90;;;;;;4893675;29;20048;-87
2023/05/26 05:02:26;;;;;;;0.17;0.17;;;8.90;99.90;;;;;;4883778;29;20116;-88
2023/05/26 05:04:52;;;;;;;0.20;0.20;;;9.00;99.90;;;;;;4896329;29;20052;-88
2023/05/26 05:07:18;;;;;;;0.10;0.10;;;9.00;99.90;;;;;;4854032;29;20084;-87
2023/05/26 05:09:44;;;;;;;0.10;0.10;;;9.10;99.90;;;;;;4861865;29;20104;-85
2023/05/26 05:12:09;;;;;;;0.10;0.10;;;9.10;99.90;;;;;;4890828;29;20053;-88
2023/05/26 05:14:35;;;;;;;0.20;0.20;;;9.20;99.90;;;;;;4894462;29;20052;-88
2023/05/26 05:17:01;;;;;;;0.20;0.20;;;9.20;99.90;;;;;;4861069;29;20048;-87
2023/05/26 05:19:26;;;;;;;0.20;0.20;;;9.30;99.90;;;;;;4881547;29;20438;-88
2023/05/26 05:21:52;;;;;;;0.20;0.20;;;9.30;99.90;;;;;;4883788;29;20053;-88
2023/05/26 05:24:20;;;;;;;0.10;0.10;;;9.40;99.90;;;;;;4869500;29;20102;-88
2023/05/26 05:26:46;;;;;;;0.10;0.10;;;9.50;99.90;;;;;;4877125;29;20045;-88
2023/05/26 05:29:14;;;;;;;0.20;0.20;;;10.30;99.90;;;;;;4892875;29;20493;-87
2023/05/26 05:31:40;;;;;;;0.20;0.20;;;9.60;99.90;;;;;;4894093;29;20087;-88
2023/05/26 05:34:06;;;;;;;0.20;0.20;;;9.60;99.90;;;;;;4871720;29;20049;-92
2023/05/26 05:36:33;;;;;;;0.13;0.13;;;9.70;99.90;;;;;;4864272;29;20057;-87
2023/05/26 05:38:58;;;;;;;0.20;0.20;;;9.80;99.90;;;;;;4877779;29;20086;-88
2023/05/26 05:41:24;;;;;;;0.20;0.20;;;9.90;99.90;;;;;;4878450;29;20080;-89
2023/05/26 05:43:50;;;;;;;0.13;0.13;;;9.90;99.90;;;;;;4852236;29;20486;-87
2023/05/26 05:46:16;;;;;;;0.13;0.13;;;9.60;99.90;;;;;;4860799;29;20063;-90
2023/05/26 05:48:42;;;;;;;0.20;0.20;;;10.20;99.90;;;;;;4865586;29;20048;-89
2023/05/26 05:51:08;;;;;;;0.20;0.20;;;10.10;99.90;;;;;;4864169;29;20045;-85
2023/05/26 05:53:34;;;;;;;0.15;0.15;;;10.20;99.90;;;;;;4863200;29;20459;-87
2023/05/26 05:56:00;;;;;;;0.17;0.17;;;10.30;99.90;;;;;;4864772;29;20124;-88
2023/05/26 05:58:31;;;;;;;0.20;0.20;;;10.30;99.90;;;;;;4893356;29;20483;-90
2023/05/26 06:00:57;;;;;;;0.10;0.10;;;10.40;99.90;;;;;;4884309;29;20049;-88
2023/05/26 06:03:26;;;;;;;0.10;0.10;;;10.40;99.90;;;;;;4902913;29;20052;-89
2023/05/26 06:05:54;;;;;;;0.20;0.20;;;10.50;99.90;;;;;;4901551;29;20045;-89
2023/05/26 06:08:20;;;;;;;0.17;0.17;;;10.60;99.90;;;;;;4886852;29;20052;-87
2023/05/26 06:10:45;;;;;;;0.20;0.20;;;10.70;99.90;;;;;;4866138;29;20132;-87
2023/05/26 06:13:11;;;;;;;0.20;0.20;;;10.70;99.90;;;;;;4865508;29;20045;-91
2023/05/26 06:15:37;;;;;;;0.10;0.10;;;10.80;99.90;;;;;;4883492;29;20056;-92
2023/05/26 06:18:02;;;;;;;0.20;0.20;;;10.80;99.90;;;;;;4881359;29;20068;-92
2023/05/26 06:20:31;;;;;;;0.20;0.20;;;10.80;99.90;;;;;;4884228;29;20105;-86
2023/05/26 06:23:00;;;;;;;0.20;0.20;;;10.90;99.90;;;;;;4881637;29;20041;-90
2023/05/26 06:25:25;;;;;;;0.13;0.13;;;10.90;99.90;;;;;;4891540;29;20044;-90
2023/05/26 06:27:51;;;;;;;0.20;0.20;;;10.90;99.90;;;;;;4859060;29;20097;-89
2023/05/26 06:30:17;;;;;;;0.20;0.20;;;11.20;99.90;;;;;;4866699;29;20490;-88
2023/05/26 06:32:43;;;;;;;0.10;0.10;;;11.00;99.90;;;;;;4862406;29;20040;-91
2023/05/26 06:35:08;;;;;;;0.10;0.10;;;11.00;99.90;;;;;;4892642;29;20045;-89
2023/05/26 06:37:34;;;;;;;0.20;0.20;;;11.00;99.90;;;;;;4879610;29;20080;-90
2023/05/26 06:40:00;;;;;;;0.20;0.20;;;11.10;99.90;;;;;;4870471;29;20029;-88
2023/05/26 06:42:26;;;;;;;0.10;0.10;;;11.10;99.90;;;;;;4883048;29;20081;-89
2023/05/26 06:44:52;;;;;;;0.17;0.17;;;11.10;99.90;;;;;;4885593;29;20036;-88
2023/05/26 06:47:22;;;;;;;0.20;0.20;;;11.20;99.90;;;;;;4866030;29;20049;-86
2023/05/26 06:49:51;;;;;;;0.10;0.10;;;11.20;99.90;;;;;;4879901;29;20052;-86
2023/05/26 06:52:18;;;;;;;0.10;0.10;;;11.30;99.90;;;;;;4861339;29;20100;-89
2023/05/26 06:54:43;;;;;;;0.20;0.20;;;11.30;99.90;;;;;;4881531;29;20669;-89
2023/05/26 06:57:09;;;;;;;0.20;0.20;;;11.30;99.90;;;;;;4861217;29;20112;-89
2023/05/26 06:59:35;;;;;;;0.20;0.20;;;11.40;99.90;;;;;;4877116;29;20512;-86
2023/05/26 07:02:01;;;;;;;0.10;0.10;;;11.50;99.90;;;;;;4879480;29;20053;-87
2023/05/26 07:04:26;;;;;;;0.10;0.10;;;11.60;99.90;;;;;;4892588;29;20617;-88
2023/05/26 07:06:52;;;;;;;0.15;0.15;;;11.50;99.90;;;;;;4871338;29;20036;-88
2023/05/26 07:09:18;;;;;;;0.20;0.20;;;11.60;99.90;;;;;;4876029;29;20136;-89
2023/05/26 07:11:43;;;;;;;0.20;0.20;;;11.60;99.90;;;;;;4862291;29;20048;-87
2023/05/26 07:14:10;;;;;;;0.10;0.10;;;11.60;99.90;;;;;;4892014;29;20597;-87
2023/05/26 07:16:35;;;;;;;0.20;0.20;;;11.70;99.90;;;;;;4861229;29;20462;-87
2023/05/26 07:19:01;;;;;;;0.20;0.20;;;11.70;99.90;;;;;;4866671;29;20053;-89
2023/05/26 07:21:31;;;;;;;0.10;0.10;;;11.70;99.90;;;;;;4890242;29;20053;-89
2023/05/26 07:23:59;;;;;;;0.20;0.20;;;11.80;99.90;;;;;;4879414;29;20065;-90
2023/05/26 07:26:25;;;;;;;0.20;0.20;;;11.80;99.90;;;;;;4881106;29;20462;-91
2023/05/26 07:28:51;;;;;;;0.13;0.13;;;11.90;99.90;;;;;;4888352;29;20505;-91
2023/05/26 07:31:18;;;;;;;0.10;0.10;;;11.90;99.90;;;;;;4884212;29;20052;-91
2023/05/26 07:33:43;;;;;;;0.13;0.13;;;11.90;99.90;;;;;;4900085;29;20048;-88
2023/05/26 07:36:09;;;;;;;0.10;0.10;;;12.00;99.90;;;;;;4900975;29;20061;-89
2023/05/26 07:38:35;;;;;;;0.20;0.20;;;12.00;99.90;;;;;;4900207;29;20504;-91
2023/05/26 07:41:03;;;;;;;0.20;0.20;;;12.00;99.90;;;;;;4885598;29;20037;-91
2023/05/26 07:43:29;;;;;;;0.10;0.10;;;12.10;99.90;;;;;;4864153;29;20052;-90
2023/05/26 07:45:55;;;;;;;0.20;0.20;;;12.20;99.90;;;;;;4884996;29;20048;-88
2023/05/26 07:48:20;;;;;;;0.20;0.20;;;12.20;99.90;;;;;;4868397;29;20119;-89
2023/05/26 07:50:55;;;;;;;0.20;0.20;;;12.20;99.90;;;;;;4881237;29;20041;-89
2023/05/26 07:53:24;;;;;;;0.20;0.20;;;12.30;99.90;;;;;;4861725;29;20056;-88
2023/05/26 07:55:50;;;;;;;0.20;0.20;;;12.30;99.90;;;;;;4884832;29;20474;-92
2023/05/26 07:58:15;;;;;;;0.20;0.20;;;12.40;99.90;;;;;;4885293;29;20080;-87
2023/05/26 08:00:41;;;;;;;0.20;0.20;;;12.40;99.60;;;;;;4878308;29;20040;-92
2023/05/26 08:03:07;;;;;;;0.10;0.10;;;12.40;99.40;;;;;;4864375;29;20397;-91
2023/05/26 08:05:32;;;;;;;0.20;0.20;;;12.40;99.30;;;;;;4881079;29;20443;-89
2023/05/26 08:07:58;;;;;;;0.17;0.17;;;12.50;99.10;;;;;;4877501;29;20140;-90
2023/05/26 08:10:24;;;;;;;0.20;0.20;;;12.60;99.20;;;;;;4895078;29;20482;-95
2023/05/26 08:12:52;;;;;;;0.20;0.20;;;12.50;99.00;;;;;;4879879;29;20051;-89
2023/05/26 08:15:24;;;;;;;0.20;0.20;;;12.60;99.10;;;;;;4855779;29;20103;-91
2023/05/26 08:17:50;;;;;;;0.20;0.20;;;12.60;99.00;;;;;;4856201;29;20549;-91
2023/05/26 08:20:16;;;;;;;0.20;0.20;;;12.70;98.80;;;;;;4860339;29;20541;-92
2023/05/26 08:22:41;;;;;;;0.17;0.17;;;12.70;98.60;;;;;;4879988;29;20641;-91
2023/05/26 08:25:07;;;;;;;0.10;0.10;;;12.70;98.60;;;;;;4879486;29;20041;-92
2023/05/26 08:27:33;;;;;;;0.20;0.20;;;12.80;98.40;;;;;;4864649;29;20049;-92
2023/05/26 08:29:59;;;;;;;0.20;0.20;;;12.80;98.00;;;;;;4883441;29;20382;-94
2023/05/26 08:32:24;;;;;;;0.20;0.20;;;12.80;98.10;;;;;;4860183;29;20478;-91
2023/05/26 08:34:50;;;;;;;0.10;0.10;;;12.80;98.20;;;;;;4863920;29;20048;-89
2023/05/26 08:37:17;;;;;;;0.10;0.10;;;12.90;98.10;;;;;;4892760;29;20041;-90
2023/05/26 08:39:43;;;;;;;0.20;0.20;;;12.90;97.80;;;;;;4893771;29;20025;-88
2023/05/26 08:42:15;;;;;;;0.15;0.15;;;12.90;97.60;;;;;;4879470;29;20053;-87
2023/05/26 08:44:44;;;;;;;0.25;0.25;;;12.90;97.60;;;;;;4873151;29;20089;-91
2023/05/26 08:47:11;;;;;;;0.10;0.10;;;12.90;97.40;;;;;;4850808;29;20061;-87
2023/05/26 08:49:45;;;;;;;0.10;0.10;;;13.00;97.30;;;;;;4870085;29;21511;-90
2023/05/26 08:52:18;;;;;;;0.20;0.20;;;13.00;97.60;;;;;;4871726;29;20060;-96
2023/05/26 08:54:48;;;;;;;0.10;0.10;;;13.10;97.90;;;;;;4869544;29;20052;-88
2023/05/26 08:57:15;;;;;;;0.20;0.20;;;13.20;97.80;;;;;;4868116;29;20116;-87
2023/05/26 08:59:43;;;;;;;0.20;0.20;;;13.30;97.90;;;;;;4870505;29;20045;-90
2023/05/26 09:02:09;;;;;;;0.20;0.20;;;13.30;97.90;;;;;;4886438;29;20148;-87
2023/05/26 09:04:35;;;;;;;0.10;0.10;;;13.40;98.00;;;;;;4857592;29;20976;-90
2023/05/26 09:07:00;;;;;;;0.20;0.20;;;13.50;98.00;;;;;;4868596;29;20051;-94
2023/05/26 09:09:26;;;;;;;0.10;0.10;;;13.60;97.90;;;;;;4851124;29;20055;-88
2023/05/26 09:11:53;;;;;;;0.20;0.20;;;13.50;97.60;;;;;;4869349;29;20065;-85
2023/05/26 09:14:20;;;;;;;0.20;0.20;;;13.50;97.50;;;;;;4868792;29;20631;-88
2023/05/26 09:16:46;;;;;;;0.10;0.10;;;13.50;97.50;;;;;;4861913;29;20073;-84
2023/05/26 09:19:14;;;;;;;0.17;0.17;;;13.50;97.20;;;;;;4869594;29;20041;-85
2023/05/26 09:21:45;;;;;;;0.20;0.20;;;13.60;97.10;;;;;;4869654;29;20562;-91
2023/05/26 09:24:17;;;;;;;0.20;0.20;;;13.60;97.00;;;;;;4851697;29;20056;-89
2023/05/26 09:26:48;;;;;;;0.20;0.20;;;13.60;97.30;;;;;;4852457;29;20078;-92
2023/05/26 09:29:14;;;;;;;0.10;0.10;;;13.70;97.40;;;;;;4884863;29;20101;-87
2023/05/26 09:31:48;;;;;;;0.15;0.15;;;13.80;97.30;;;;;;4876063;29;20125;-91
2023/05/26 09:34:17;;;;;;;0.10;0.10;;;13.80;97.20;;;;;;4876645;29;20048;-87
2023/05/26 09:36:43;;;;;;;0.10;0.10;;;13.80;97.00;;;;;;4859580;29;20398;-87
2023/05/26 09:39:13;;;;;;;0.15;0.15;;;13.80;97.00;;;;;;4879979;29;20486;-89
2023/05/26 09:41:40;;;;;;;0.10;0.10;;;13.90;97.30;;;;;;4877978;29;20072;-91
2023/05/26 09:44:15;;;;;;;0.17;0.17;;;14.00;97.20;;;;;;4860293;29;20052;-93
2023/05/26 09:46:42;;;;;;;0.15;0.15;;;14.00;97.30;;;;;;4863120;29;20041;-91
2023/05/26 09:49:14;;;;;;;0.10;0.10;;;14.00;96.90;;;;;;4867614;29;20085;-88
2023/05/26 09:51:45;;;;;;;0.17;0.17;;;14.00;96.90;;;;;;4861829;29;20050;-87
2023/05/26 09:54:12;;;;;;;0.10;0.10;;;14.10;96.70;;;;;;4866491;29;20525;-92
2023/05/26 09:56:56;;;;;;;0.10;0.10;;;14.10;96.80;;;;;;4868832;29;20069;-88
2023/05/26 09:59:37;;;;;;;0.10;0.10;;;14.10;96.70;;;;;;4859541;29;20050;-88
2023/05/26 10:02:23;;;;;;;0.10;0.10;;;;;;;;;;4869894;29;20061;-88
2023/05/26 10:04:50;;;;;;;0.20;0.20;;;14.20;96.40;;;;;;4882521;29;20086;-91
2023/05/26 10:07:20;;;;;;;0.17;0.17;;;14.30;96.80;;;;;;4864161;29;20064;-94
2023/05/26 10:09:58;;;;;;;0.17;0.17;;;14.40;97.10;;;;;;4864230;29;20106;-89
2023/05/26 10:12:30;;;;;;;0.20;0.20;;;14.60;96.80;;;;;;4875622;29;20025;-89
2023/05/26 10:14:56;;;;;;;0.20;0.20;;;14.60;96.70;;;;;;4863558;29;20080;-88
2023/05/26 10:17:26;;;;;;;0.20;0.20;;;14.70;96.70;;;;;;4858542;29;20041;-89
2023/05/26 10:19:57;;;;;;;0.20;0.20;;;14.70;96.40;;;;;;4851655;29;20402;-91
2023/05/26 10:22:54;;;;;;;0.17;0.17;;;14.70;96.40;;;;;;4855680;29;20092;-85
2023/05/26 10:25:31;;;;;;;0.20;0.20;;;14.70;96.30;;;;;;4855162;29;20081;-88
2023/05/26 10:28:02;;;;;;;0.10;0.10;;;14.70;96.10;;;;;;4858132;29;20049;-89
2023/05/26 10:30:29;;;;;;;0.10;0.10;;;14.70;96.20;;;;;;4860682;29;20128;-88
2023/05/26 10:32:57;;;;;;;0.20;0.20;;;14.70;96.20;;;;;;4862127;29;20089;-89
2023/05/26 10:35:32;;;;;;;0.10;0.10;;;14.80;96.00;;;;;;4898986;29;20761;-89
2023/05/26 10:38:01;;;;;;;0.20;0.20;;;14.80;95.90;;;;;;4860922;29;20105;-87
2023/05/26 10:40:35;;;;;;;0.20;0.20;;;14.80;95.70;;;;;;4860772;29;20176;-87
2023/05/26 10:43:02;;;;;;;0.10;0.10;;;14.80;95.60;;;;;;4852266;29;20125;-87
2023/05/26 10:45:32;;;;;;;0.20;0.20;;;14.70;95.40;;;;;;4862744;29;20041;-87
2023/05/26 10:48:05;;;;;;;0.10;0.10;;;14.70;95.40;;;;;;4859771;29;20061;-90
2023/05/26 10:50:58;;;;;;;0.15;0.15;;;14.70;95.40;;;;;;4861096;29;20058;-87
2023/05/26 10:53:45;;;;;;;0.10;0.10;;;14.70;95.30;;;;;;4855715;29;20053;-90
2023/05/26 10:56:13;;;;;;;0.20;0.20;;;14.80;95.60;;;;;;4859926;29;20494;-87
2023/05/26 10:58:48;;;;;;;0.20;0.20;;;14.90;96.00;;;;;;4860611;29;20049;-90
2023/05/26 11:01:20;;;;;;;0.10;0.10;;;14.90;95.90;;;;;;4859407;29;20156;-88
2023/05/26 11:04:04;;;;;;;0.20;0.20;;;15.10;95.70;;;;;;4865416;29;20564;-90
2023/05/26 11:06:50;;;;;;;0.15;0.15;;;15.10;95.20;;;;;;4843836;29;20049;-90
2023/05/26 11:09:19;;;;;;;0.10;0.10;;;15.10;95.20;;;;;;4856019;29;20468;-90
2023/05/26 11:11:59;;;;;;;0.10;0.10;;;15.20;95.70;;;;;;4874518;29;20069;-89
2023/05/26 11:14:29;;;;;;;0.10;0.10;;;15.40;95.80;;;;;;4867182;29;20045;-88
2023/05/26 11:16:59;;;;;;;0.20;0.20;;;15.40;95.60;;;;;;4858037;29;20053;-89
2023/05/26 11:19:33;;;;;;;0.10;0.10;;;15.50;95.60;;;;;;4858316;29;20136;-90
2023/05/26 11:22:00;;;;;;;0.20;0.20;;;15.60;95.40;;;;;;4855912;29;20074;-87
2023/05/26 11:24:26;;;;;;;0.20;0.20;;;15.60;95.60;;;;;;4856646;29;20042;-83
2023/05/26 11:26:52;;;;;;;0.17;0.17;;;15.60;95.50;;;;;;4854266;29;20045;-89
2023/05/26 11:29:22;;;;;;;0.10;0.10;;;15.70;95.40;;;;;;4861465;29;20096;-90
2023/05/26 11:31:52;;;;;;;0.20;0.20;;;15.90;95.10;;;;;;4864340;29;20478;-91
2023/05/26 11:34:18;;;;;;;0.20;0.20;;;15.90;95.10;;;;;;4861529;29;20109;-87
2023/05/26 11:36:53;;;;;;;0.20;0.20;;;15.90;94.80;;;;;;4860669;29;20045;-90
2023/05/26 11:39:22;;;;;;;0.10;0.10;;;16.00;94.80;;;;;;4872731;29;20046;-86
2023/05/26 11:41:51;;;;;;;0.20;0.20;;;16.00;94.70;;;;;;4873013;29;20526;-86
2023/05/26 11:44:17;;;;;;;0.20;0.20;;;16.10;94.70;;;;;;4891876;29;20040;-87
2023/05/26 11:46:46;;;;;;;0.20;0.20;;;16.20;94.70;;;;;;4871386;29;20209;-86
2023/05/26 11:49:19;;;;;;;0.10;0.10;;;16.10;94.70;;;;;;4875651;29;20061;-87
2023/05/26 11:51:47;;;;;;;0.10;0.10;;;16.20;94.50;;;;;;4888294;29;20048;-89
2023/05/26 11:54:13;;;;;;;0.20;0.20;;;16.10;94.30;;;;;;4860854;29;20049;-90
2023/05/26 11:56:39;;;;;;;0.20;0.20;;;16.10;94.50;;;;;;4879437;29;20438;-88
2023/05/26 11:59:05;;;;;;;0.10;0.10;;;16.20;94.70;;;;;;4859124;29;20077;-89
2023/05/26 12:01:32;;;;;;;0.20;0.20;;;16.20;94.50;;;;;;4882031;29;20037;-87
2023/05/26 12:03:59;;;;;;;0.10;0.10;;;16.20;94.70;;;;;;4863747;29;20125;-87
2023/05/26 12:06:29;;;;;;;0.20;0.20;;;16.10;94.40;;;;;;4877522;29;20096;-88
2023/05/26 12:09:03;;;;;;;0.15;0.15;;;16.10;94.50;;;;;;4874513;29;20127;-90
2023/05/26 12:11:31;;;;;;;0.15;0.15;;;16.20;94.10;;;;;;4864383;29;20053;-83
2023/05/26 12:14:07;;;;;;;0.20;0.20;;;16.20;94.10;;;;;;4875854;29;20932;-88
2023/05/26 12:16:36;;;;;;;0.20;0.20;;;16.20;93.40;;;;;;4864847;29;20041;-88
2023/05/26 12:19:07;;;;;;;0.10;0.10;;;16.20;93.70;;;;;;4878765;29;20059;-85
2023/05/26 12:21:53;;;;;;;0.10;0.10;;;16.20;93.90;;;;;;4879966;29;20111;-86
2023/05/26 12:24:33;;;;;;;0.20;0.20;;;16.30;94.20;;;;;;4859012;29;20052;-87
2023/05/26 12:27:36;;;;;;;0.20;0.20;;;16.40;94.40;;;;;;4860917;29;20068;-91
2023/05/26 12:30:19;;;;;;;0.20;0.20;;;16.60;93.70;;;;;;4875992;29;20068;-89
2023/05/26 12:32:46;;;;;;;0.20;0.20;;;16.60;93.70;;;;;;4861628;29;20052;-87
2023/05/26 12:35:13;;;;;;;0.20;0.20;;;16.60;93.80;;;;;;4862411;29;20056;-91
2023/05/26 12:37:38;;;;;;;0.20;0.20;;;16.60;94.20;;;;;;4879991;29;20045;-89
2023/05/26 12:40:08;;;;;;;0.15;0.15;;;16.70;93.80;;;;;;4866471;29;20059;-89
2023/05/26 12:42:37;;;;;;;0.20;0.20;;;16.60;93.90;;;;;;4881681;29;20128;-88
2023/05/26 12:45:04;;;;;;;0.10;0.10;;;16.70;93.90;;;;;;4879079;29;20136;-88
2023/05/26 12:47:30;;;;;;;0.20;0.20;;;16.70;93.40;;;;;;4877244;29;20136;-91
2023/05/26 12:49:56;;;;;;;0.10;0.10;;;16.70;93.40;;;;;;4861858;29;20063;-90
2023/05/26 12:52:22;;;;;;;0.15;0.15;;;16.70;93.80;;;;;;4862747;29;20494;-90
2023/05/26 12:54:48;;;;;;;0.10;0.10;;;16.70;94.10;;;;;;4862077;29;20497;-90
2023/05/26 12:57:14;;;;;;;0.20;0.20;;;16.60;94.10;;;;;;4878308;29;20080;-88
2023/05/26 12:59:41;;;;;;;0.20;0.20;;;16.70;94.00;;;;;;4879353;29;20443;-87